Viru-Viru, Bolivia
Current Conditions -  °F | °C
As of 5:00 PM on Tuesday 21 Oct 2014 (Local Time) from SLVR Reporting Station
Broken Clouds Broken Clouds  
Wind Chill: 88°   Ceiling: 7000
Heat Index: 90°   Visibility: 6mi
Dew Point: 66°   Wind: 9mph
Humidity: 49%   Direction: 160°SSE
Pressure: 29.88"   Gusts: NA
Location:  17.63°S, 63.13°W
Report Text: SLVR 212100Z 16008KT 9999 SCT020 BKN070 BKN200 31/19 Q1012
Loading
Personal Weather Stations






























Interactive Weather Map
Tropical Storm Tracking
New forecast layout! Learn more

10-Day Weather Forecast

Advertisements
Track Severe Weather on mobile